sensor_id;sensor_type;location;lat;lon;timestamp;P1;durP1;ratioP1;P2;durP2;ratioP2
46355;SDS011;32066;49.474;11.106;2024-02-21T00:02:05;12.88;;;3.55;;
46355;SDS011;32066;49.474;11.106;2024-02-21T00:04:34;12.60;;;3.28;;
46355;SDS011;32066;49.474;11.106;2024-02-21T00:07:03;13.50;;;3.65;;
46355;SDS011;32066;49.474;11.106;2024-02-21T00:09:35;13.57;;;4.00;;
46355;SDS011;32066;49.474;11.106;2024-02-21T00:12:03;12.43;;;4.05;;
46355;SDS011;32066;49.474;11.106;2024-02-21T00:14:33;13.13;;;4.38;;
46355;SDS011;32066;49.474;11.106;2024-02-21T00:17:01;15.35;;;4.78;;
46355;SDS011;32066;49.474;11.106;2024-02-21T00:19:30;13.50;;;4.05;;
46355;SDS011;32066;49.474;11.106;2024-02-21T00:21:59;14.25;;;4.00;;
46355;SDS011;32066;49.474;11.106;2024-02-21T00:24:27;13.35;;;4.13;;
46355;SDS011;32066;49.474;11.106;2024-02-21T00:26:58;12.35;;;4.10;;
46355;SDS011;32066;49.474;11.106;2024-02-21T00:29:27;13.57;;;4.22;;
46355;SDS011;32066;49.474;11.106;2024-02-21T00:31:55;12.50;;;3.75;;
46355;SDS011;32066;49.474;11.106;2024-02-21T00:34:24;12.27;;;3.95;;
46355;SDS011;32066;49.474;11.106;2024-02-21T00:36:53;13.98;;;3.88;;
46355;SDS011;32066;49.474;11.106;2024-02-21T00:39:21;12.05;;;3.65;;
46355;SDS011;32066;49.474;11.106;2024-02-21T00:41:50;14.15;;;3.85;;
46355;SDS011;32066;49.474;11.106;2024-02-21T00:44:21;11.57;;;3.97;;
46355;SDS011;32066;49.474;11.106;2024-02-21T00:46:50;10.07;;;3.53;;
46355;SDS011;32066;49.474;11.106;2024-02-21T00:49:18;18.20;;;4.93;;
46355;SDS011;32066;49.474;11.106;2024-02-21T00:51:47;12.80;;;4.10;;
46355;SDS011;32066;49.474;11.106;2024-02-21T00:54:16;13.80;;;3.92;;
46355;SDS011;32066;49.474;11.106;2024-02-21T00:56:44;13.50;;;4.20;;
46355;SDS011;32066;49.474;11.106;2024-02-21T00:59:13;11.32;;;4.15;;
46355;SDS011;32066;49.474;11.106;2024-02-21T01:01:44;16.38;;;4.60;;
46355;SDS011;32066;49.474;11.106;2024-02-21T01:04:13;12.90;;;4.47;;
46355;SDS011;32066;49.474;11.106;2024-02-21T01:06:41;9.70;;;3.70;;
46355;SDS011;32066;49.474;11.106;2024-02-21T01:09:10;17.55;;;4.53;;
46355;SDS011;32066;49.474;11.106;2024-02-21T01:11:39;13.60;;;4.63;;
46355;SDS011;32066;49.474;11.106;2024-02-21T01:14:08;13.43;;;4.20;;
46355;SDS011;32066;49.474;11.106;2024-02-21T01:16:36;14.95;;;4.88;;
46355;SDS011;32066;49.474;11.106;2024-02-21T01:19:08;13.25;;;4.03;;
46355;SDS011;32066;49.474;11.106;2024-02-21T01:21:36;14.02;;;4.43;;
46355;SDS011;32066;49.474;11.106;2024-02-21T01:24:05;13.93;;;4.45;;
46355;SDS011;32066;49.474;11.106;2024-02-21T01:26:34;11.88;;;4.10;;
46355;SDS011;32066;49.474;11.106;2024-02-21T01:29:02;18.67;;;4.43;;
46355;SDS011;32066;49.474;11.106;2024-02-21T01:31:31;10.98;;;3.90;;
46355;SDS011;32066;49.474;11.106;2024-02-21T01:33:59;15.88;;;4.63;;
46355;SDS011;32066;49.474;11.106;2024-02-21T01:36:30;13.02;;;4.38;;
46355;SDS011;32066;49.474;11.106;2024-02-21T01:38:59;12.77;;;4.20;;
46355;SDS011;32066;49.474;11.106;2024-02-21T01:41:29;12.73;;;4.53;;
46355;SDS011;32066;49.474;11.106;2024-02-21T01:43:58;11.45;;;3.78;;
46355;SDS011;32066;49.474;11.106;2024-02-21T01:46:26;15.68;;;4.25;;
46355;SDS011;32066;49.474;11.106;2024-02-21T01:48:56;14.23;;;4.22;;
46355;SDS011;32066;49.474;11.106;2024-02-21T01:51:25;15.68;;;4.50;;
46355;SDS011;32066;49.474;11.106;2024-02-21T01:53:56;14.60;;;3.75;;
46355;SDS011;32066;49.474;11.106;2024-02-21T01:56:25;17.60;;;4.65;;
46355;SDS011;32066;49.474;11.106;2024-02-21T01:58:55;11.80;;;4.03;;
46355;SDS011;32066;49.474;11.106;2024-02-21T02:01:23;14.35;;;4.82;;
46355;SDS011;32066;49.474;11.106;2024-02-21T02:03:53;13.80;;;4.43;;
46355;SDS011;32066;49.474;11.106;2024-02-21T02:06:22;11.98;;;3.75;;
46355;SDS011;32066;49.474;11.106;2024-02-21T02:08:51;11.77;;;3.92;;
46355;SDS011;32066;49.474;11.106;2024-02-21T02:11:22;14.60;;;4.22;;
46355;SDS011;32066;49.474;11.106;2024-02-21T02:13:51;10.27;;;3.95;;
46355;SDS011;32066;49.474;11.106;2024-02-21T02:16:20;12.23;;;4.57;;
46355;SDS011;32066;49.474;11.106;2024-02-21T02:18:48;12.98;;;4.40;;
46355;SDS011;32066;49.474;11.106;2024-02-21T02:21:21;12.15;;;4.10;;
46355;SDS011;32066;49.474;11.106;2024-02-21T02:23:56;15.40;;;4.30;;
46355;SDS011;32066;49.474;11.106;2024-02-21T02:26:25;12.48;;;4.55;;
46355;SDS011;32066;49.474;11.106;2024-02-21T02:28:53;12.48;;;4.22;;
46355;SDS011;32066;49.474;11.106;2024-02-21T02:31:22;15.55;;;4.60;;
46355;SDS011;32066;49.474;11.106;2024-02-21T02:33:50;11.85;;;3.95;;
46355;SDS011;32066;49.474;11.106;2024-02-21T02:36:19;13.48;;;4.10;;
46355;SDS011;32066;49.474;11.106;2024-02-21T02:38:48;10.25;;;3.85;;
46355;SDS011;32066;49.474;11.106;2024-02-21T02:41:19;11.32;;;3.60;;
46355;SDS011;32066;49.474;11.106;2024-02-21T02:43:47;12.68;;;3.80;;
46355;SDS011;32066;49.474;11.106;2024-02-21T02:46:16;14.90;;;3.72;;
46355;SDS011;32066;49.474;11.106;2024-02-21T02:48:45;11.98;;;3.67;;
46355;SDS011;32066;49.474;11.106;2024-02-21T02:51:13;11.65;;;3.78;;
46355;SDS011;32066;49.474;11.106;2024-02-21T02:53:42;10.63;;;4.20;;
46355;SDS011;32066;49.474;11.106;2024-02-21T02:56:13;13.27;;;3.75;;
46355;SDS011;32066;49.474;11.106;2024-02-21T02:58:45;11.57;;;3.72;;
46355;SDS011;32066;49.474;11.106;2024-02-21T03:01:14;13.85;;;4.00;;
46355;SDS011;32066;49.474;11.106;2024-02-21T03:03:42;13.68;;;3.63;;
46355;SDS011;32066;49.474;11.106;2024-02-21T03:06:12;9.35;;;3.15;;
46355;SDS011;32066;49.474;11.106;2024-02-21T03:08:41;12.68;;;3.38;;
46355;SDS011;32066;49.474;11.106;2024-02-21T03:11:09;9.68;;;3.60;;
46355;SDS011;32066;49.474;11.106;2024-02-21T03:13:38;13.45;;;3.80;;
46355;SDS011;32066;49.474;11.106;2024-02-21T03:16:10;13.38;;;3.85;;
46355;SDS011;32066;49.474;11.106;2024-02-21T03:18:38;14.38;;;4.43;;
46355;SDS011;32066;49.474;11.106;2024-02-21T03:21:08;11.80;;;3.80;;
46355;SDS011;32066;49.474;11.106;2024-02-21T03:23:37;13.18;;;3.97;;
46355;SDS011;32066;49.474;11.106;2024-02-21T03:26:05;12.23;;;3.42;;
46355;SDS011;32066;49.474;11.106;2024-02-21T03:28:34;15.38;;;3.95;;
46355;SDS011;32066;49.474;11.106;2024-02-21T03:31:04;16.10;;;3.78;;
46355;SDS011;32066;49.474;11.106;2024-02-21T03:33:36;9.45;;;3.30;;
46355;SDS011;32066;49.474;11.106;2024-02-21T03:36:04;14.50;;;4.10;;
46355;SDS011;32066;49.474;11.106;2024-02-21T03:38:33;11.50;;;3.33;;
46355;SDS011;32066;49.474;11.106;2024-02-21T03:41:02;13.82;;;4.18;;
46355;SDS011;32066;49.474;11.106;2024-02-21T03:43:31;13.82;;;3.65;;
46355;SDS011;32066;49.474;11.106;2024-02-21T03:45:59;14.32;;;3.70;;
46355;SDS011;32066;49.474;11.106;2024-02-21T03:48:28;13.50;;;4.45;;
46355;SDS011;32066;49.474;11.106;2024-02-21T03:51:00;10.48;;;3.45;;
46355;SDS011;32066;49.474;11.106;2024-02-21T03:53:29;10.93;;;3.25;;
46355;SDS011;32066;49.474;11.106;2024-02-21T03:55:57;14.32;;;3.83;;
46355;SDS011;32066;49.474;11.106;2024-02-21T03:58:29;11.68;;;3.85;;
46355;SDS011;32066;49.474;11.106;2024-02-21T04:00:59;11.63;;;3.45;;
46355;SDS011;32066;49.474;11.106;2024-02-21T04:03:28;11.10;;;3.38;;
46355;SDS011;32066;49.474;11.106;2024-02-21T04:06:00;12.55;;;4.13;;
46355;SDS011;32066;49.474;11.106;2024-02-21T04:08:29;10.55;;;3.63;;
46355;SDS011;32066;49.474;11.106;2024-02-21T04:10:58;13.05;;;3.95;;
46355;SDS011;32066;49.474;11.106;2024-02-21T04:13:26;12.10;;;3.40;;
46355;SDS011;32066;49.474;11.106;2024-02-21T04:15:55;12.02;;;3.75;;
46355;SDS011;32066;49.474;11.106;2024-02-21T04:18:23;11.55;;;3.90;;
46355;SDS011;32066;49.474;11.106;2024-02-21T04:20:54;13.57;;;3.85;;
46355;SDS011;32066;49.474;11.106;2024-02-21T04:23:25;12.52;;;3.80;;
46355;SDS011;32066;49.474;11.106;2024-02-21T04:25:55;11.35;;;3.55;;
46355;SDS011;32066;49.474;11.106;2024-02-21T04:28:23;13.50;;;3.80;;
46355;SDS011;32066;49.474;11.106;2024-02-21T04:30:52;11.30;;;3.60;;
46355;SDS011;32066;49.474;11.106;2024-02-21T04:33:20;12.50;;;3.60;;
46355;SDS011;32066;49.474;11.106;2024-02-21T04:35:49;11.82;;;3.85;;
46355;SDS011;32066;49.474;11.106;2024-02-21T04:38:20;12.13;;;3.50;;
46355;SDS011;32066;49.474;11.106;2024-02-21T04:40:51;12.93;;;3.78;;
46355;SDS011;32066;49.474;11.106;2024-02-21T04:43:19;11.93;;;3.70;;
46355;SDS011;32066;49.474;11.106;2024-02-21T04:45:49;13.90;;;3.83;;
46355;SDS011;32066;49.474;11.106;2024-02-21T04:48:18;13.45;;;3.90;;
46355;SDS011;32066;49.474;11.106;2024-02-21T04:50:47;9.75;;;3.22;;
46355;SDS011;32066;49.474;11.106;2024-02-21T04:53:15;12.88;;;3.75;;
46355;SDS011;32066;49.474;11.106;2024-02-21T04:55:44;13.50;;;3.70;;
46355;SDS011;32066;49.474;11.106;2024-02-21T04:58:15;11.10;;;3.72;;
46355;SDS011;32066;49.474;11.106;2024-02-21T05:00:44;10.98;;;3.20;;
46355;SDS011;32066;49.474;11.106;2024-02-21T05:03:12;12.63;;;3.40;;
46355;SDS011;32066;49.474;11.106;2024-02-21T05:05:41;10.95;;;3.83;;
46355;SDS011;32066;49.474;11.106;2024-02-21T05:08:10;13.18;;;3.45;;
46355;SDS011;32066;49.474;11.106;2024-02-21T05:10:39;15.38;;;4.53;;
46355;SDS011;32066;49.474;11.106;2024-02-21T05:13:07;11.45;;;3.40;;
46355;SDS011;32066;49.474;11.106;2024-02-21T05:15:39;9.02;;;3.58;;
46355;SDS011;32066;49.474;11.106;2024-02-21T05:18:08;10.90;;;3.13;;
46355;SDS011;32066;49.474;11.106;2024-02-21T05:20:36;13.70;;;3.40;;
46355;SDS011;32066;49.474;11.106;2024-02-21T05:23:05;13.20;;;3.50;;
46355;SDS011;32066;49.474;11.106;2024-02-21T05:25:33;10.23;;;3.22;;
46355;SDS011;32066;49.474;11.106;2024-02-21T05:28:02;9.82;;;2.88;;
46355;SDS011;32066;49.474;11.106;2024-02-21T05:30:31;11.55;;;3.42;;
46355;SDS011;32066;49.474;11.106;2024-02-21T05:33:06;12.07;;;3.13;;
46355;SDS011;32066;49.474;11.106;2024-02-21T05:35:34;12.02;;;3.70;;
46355;SDS011;32066;49.474;11.106;2024-02-21T05:38:03;14.00;;;3.80;;
46355;SDS011;32066;49.474;11.106;2024-02-21T05:40:36;9.65;;;3.17;;
46355;SDS011;32066;49.474;11.106;2024-02-21T05:43:05;9.30;;;3.78;;
46355;SDS011;32066;49.474;11.106;2024-02-21T05:45:35;10.93;;;3.30;;
46355;SDS011;32066;49.474;11.106;2024-02-21T05:48:06;13.90;;;3.45;;
46355;SDS011;32066;49.474;11.106;2024-02-21T05:50:35;14.30;;;3.50;;
46355;SDS011;32066;49.474;11.106;2024-02-21T05:53:03;15.90;;;4.18;;
46355;SDS011;32066;49.474;11.106;2024-02-21T05:55:32;12.52;;;3.90;;
46355;SDS011;32066;49.474;11.106;2024-02-21T05:58:01;14.10;;;3.40;;
46355;SDS011;32066;49.474;11.106;2024-02-21T06:00:31;15.75;;;4.47;;
46355;SDS011;32066;49.474;11.106;2024-02-21T06:02:59;10.32;;;3.72;;
46355;SDS011;32066;49.474;11.106;2024-02-21T06:05:31;10.65;;;3.08;;
46355;SDS011;32066;49.474;11.106;2024-02-21T06:08:04;7.80;;;3.38;;
46355;SDS011;32066;49.474;11.106;2024-02-21T06:10:34;14.90;;;3.67;;
46355;SDS011;32066;49.474;11.106;2024-02-21T06:13:03;11.25;;;3.78;;
46355;SDS011;32066;49.474;11.106;2024-02-21T06:15:31;9.73;;;3.40;;
46355;SDS011;32066;49.474;11.106;2024-02-21T06:18:00;14.73;;;3.63;;
46355;SDS011;32066;49.474;11.106;2024-02-21T06:20:31;11.63;;;3.60;;
46355;SDS011;32066;49.474;11.106;2024-02-21T06:23:01;11.20;;;3.63;;
46355;SDS011;32066;49.474;11.106;2024-02-21T06:25:30;11.32;;;3.83;;
46355;SDS011;32066;49.474;11.106;2024-02-21T06:27:58;9.90;;;4.22;;
46355;SDS011;32066;49.474;11.106;2024-02-21T06:30:27;11.45;;;3.50;;
46355;SDS011;32066;49.474;11.106;2024-02-21T06:32:55;14.20;;;3.85;;
46355;SDS011;32066;49.474;11.106;2024-02-21T06:35:25;10.00;;;3.17;;
46355;SDS011;32066;49.474;11.106;2024-02-21T06:37:56;13.40;;;3.80;;
46355;SDS011;32066;49.474;11.106;2024-02-21T06:40:25;14.77;;;3.92;;
46355;SDS011;32066;49.474;11.106;2024-02-21T06:42:51;12.05;;;3.60;;
46355;SDS011;32066;49.474;11.106;2024-02-21T06:45:19;10.27;;;3.35;;
46355;SDS011;32066;49.474;11.106;2024-02-21T06:47:48;12.13;;;3.53;;
46355;SDS011;32066;49.474;11.106;2024-02-21T06:50:16;12.07;;;3.97;;
46355;SDS011;32066;49.474;11.106;2024-02-21T06:52:45;11.45;;;3.20;;
46355;SDS011;32066;49.474;11.106;2024-02-21T06:55:16;11.60;;;3.42;;
46355;SDS011;32066;49.474;11.106;2024-02-21T06:57:45;14.15;;;3.50;;
46355;SDS011;32066;49.474;11.106;2024-02-21T07:00:14;10.77;;;3.40;;
46355;SDS011;32066;49.474;11.106;2024-02-21T07:02:43;9.90;;;3.38;;
46355;SDS011;32066;49.474;11.106;2024-02-21T07:05:12;12.02;;;3.40;;
46355;SDS011;32066;49.474;11.106;2024-02-21T07:07:41;12.10;;;3.70;;
46355;SDS011;32066;49.474;11.106;2024-02-21T07:10:09;11.55;;;3.67;;
46355;SDS011;32066;49.474;11.106;2024-02-21T07:12:41;14.70;;;3.58;;
46355;SDS011;32066;49.474;11.106;2024-02-21T07:15:09;17.13;;;3.90;;
46355;SDS011;32066;49.474;11.106;2024-02-21T07:17:38;10.20;;;3.50;;
46355;SDS011;32066;49.474;11.106;2024-02-21T07:20:07;9.60;;;3.63;;
46355;SDS011;32066;49.474;11.106;2024-02-21T07:22:36;13.77;;;3.90;;
46355;SDS011;32066;49.474;11.106;2024-02-21T07:25:06;15.77;;;4.47;;
46355;SDS011;32066;49.474;11.106;2024-02-21T07:27:35;9.40;;;3.33;;
46355;SDS011;32066;49.474;11.106;2024-02-21T07:30:08;14.65;;;3.58;;
46355;SDS011;32066;49.474;11.106;2024-02-21T07:32:37;9.48;;;3.40;;
46355;SDS011;32066;49.474;11.106;2024-02-21T07:35:06;14.15;;;3.50;;
46355;SDS011;32066;49.474;11.106;2024-02-21T07:37:37;10.60;;;3.38;;
46355;SDS011;32066;49.474;11.106;2024-02-21T07:40:06;10.60;;;3.30;;
46355;SDS011;32066;49.474;11.106;2024-02-21T07:42:40;11.60;;;4.05;;
46355;SDS011;32066;49.474;11.106;2024-02-21T07:45:11;12.32;;;3.10;;
46355;SDS011;32066;49.474;11.106;2024-02-21T07:47:39;11.57;;;3.78;;
46355;SDS011;32066;49.474;11.106;2024-02-21T07:50:08;9.43;;;3.53;;
46355;SDS011;32066;49.474;11.106;2024-02-21T07:52:37;10.93;;;3.58;;
46355;SDS011;32066;49.474;11.106;2024-02-21T07:55:06;11.25;;;3.92;;
46355;SDS011;32066;49.474;11.106;2024-02-21T07:57:35;13.80;;;3.97;;
46355;SDS011;32066;49.474;11.106;2024-02-21T08:00:05;10.80;;;3.60;;
46355;SDS011;32066;49.474;11.106;2024-02-21T08:02:42;12.85;;;3.75;;
46355;SDS011;32066;49.474;11.106;2024-02-21T08:05:11;10.50;;;3.80;;
46355;SDS011;32066;49.474;11.106;2024-02-21T08:07:40;10.27;;;3.30;;
46355;SDS011;32066;49.474;11.106;2024-02-21T08:10:08;11.25;;;3.63;;
46355;SDS011;32066;49.474;11.106;2024-02-21T08:12:38;9.50;;;3.45;;
46355;SDS011;32066;49.474;11.106;2024-02-21T08:15:07;10.82;;;3.80;;
46355;SDS011;32066;49.474;11.106;2024-02-21T08:17:37;10.70;;;3.20;;
46355;SDS011;32066;49.474;11.106;2024-02-21T08:20:09;10.23;;;3.17;;
46355;SDS011;32066;49.474;11.106;2024-02-21T08:22:38;10.55;;;3.33;;
46355;SDS011;32066;49.474;11.106;2024-02-21T08:25:07;11.55;;;3.20;;
46355;SDS011;32066;49.474;11.106;2024-02-21T08:27:37;13.40;;;3.40;;
46355;SDS011;32066;49.474;11.106;2024-02-21T08:30:06;10.25;;;3.58;;
46355;SDS011;32066;49.474;11.106;2024-02-21T08:32:35;8.90;;;3.20;;
46355;SDS011;32066;49.474;11.106;2024-02-21T08:35:04;10.73;;;3.45;;
46355;SDS011;32066;49.474;11.106;2024-02-21T08:37:36;14.63;;;3.70;;
46355;SDS011;32066;49.474;11.106;2024-02-21T08:40:05;12.68;;;3.50;;
46355;SDS011;32066;49.474;11.106;2024-02-21T08:42:36;9.13;;;3.00;;
46355;SDS011;32066;49.474;11.106;2024-02-21T08:45:08;11.50;;;3.40;;
46355;SDS011;32066;49.474;11.106;2024-02-21T08:47:38;9.32;;;3.35;;
46355;SDS011;32066;49.474;11.106;2024-02-21T08:50:08;10.18;;;3.10;;
46355;SDS011;32066;49.474;11.106;2024-02-21T08:52:40;10.35;;;3.13;;
46355;SDS011;32066;49.474;11.106;2024-02-21T08:55:09;11.43;;;3.67;;
46355;SDS011;32066;49.474;11.106;2024-02-21T08:57:37;14.43;;;4.20;;
46355;SDS011;32066;49.474;11.106;2024-02-21T09:00:06;11.27;;;3.30;;
46355;SDS011;32066;49.474;11.106;2024-02-21T09:02:39;9.38;;;3.42;;
46355;SDS011;32066;49.474;11.106;2024-02-21T09:05:09;12.07;;;3.72;;
46355;SDS011;32066;49.474;11.106;2024-02-21T09:07:40;10.57;;;3.33;;
46355;SDS011;32066;49.474;11.106;2024-02-21T09:10:09;8.63;;;2.92;;
46355;SDS011;32066;49.474;11.106;2024-02-21T09:12:37;8.70;;;2.80;;
46355;SDS011;32066;49.474;11.106;2024-02-21T09:15:07;10.27;;;2.90;;
46355;SDS011;32066;49.474;11.106;2024-02-21T09:17:36;9.48;;;2.88;;
46355;SDS011;32066;49.474;11.106;2024-02-21T09:20:06;10.27;;;2.78;;
46355;SDS011;32066;49.474;11.106;2024-02-21T09:22:39;13.40;;;2.85;;
46355;SDS011;32066;49.474;11.106;2024-02-21T09:25:08;10.70;;;3.10;;
46355;SDS011;32066;49.474;11.106;2024-02-21T09:27:37;9.73;;;2.80;;
46355;SDS011;32066;49.474;11.106;2024-02-21T09:30:06;10.05;;;2.95;;
46355;SDS011;32066;49.474;11.106;2024-02-21T09:32:35;8.60;;;2.97;;
46355;SDS011;32066;49.474;11.106;2024-02-21T09:35:04;8.93;;;3.05;;
46355;SDS011;32066;49.474;11.106;2024-02-21T09:37:33;12.27;;;2.78;;
46355;SDS011;32066;49.474;11.106;2024-02-21T09:40:06;10.52;;;2.72;;
46355;SDS011;32066;49.474;11.106;2024-02-21T09:42:36;8.02;;;2.47;;
46355;SDS011;32066;49.474;11.106;2024-02-21T09:45:07;11.20;;;3.25;;
46355;SDS011;32066;49.474;11.106;2024-02-21T09:48:00;12.45;;;3.30;;
46355;SDS011;32066;49.474;11.106;2024-02-21T09:50:43;11.05;;;2.55;;
46355;SDS011;32066;49.474;11.106;2024-02-21T09:53:12;7.80;;;2.40;;
46355;SDS011;32066;49.474;11.106;2024-02-21T09:55:44;8.57;;;2.20;;
46355;SDS011;32066;49.474;11.106;2024-02-21T09:58:14;9.25;;;2.13;;
46355;SDS011;32066;49.474;11.106;2024-02-21T10:00:43;10.23;;;3.10;;
46355;SDS011;32066;49.474;11.106;2024-02-21T10:03:12;9.40;;;2.22;;
46355;SDS011;32066;49.474;11.106;2024-02-21T10:05:45;11.50;;;2.60;;
46355;SDS011;32066;49.474;11.106;2024-02-21T10:08:15;8.57;;;2.23;;
46355;SDS011;32066;49.474;11.106;2024-02-21T10:10:47;8.95;;;2.70;;
46355;SDS011;32066;49.474;11.106;2024-02-21T10:13:25;9.57;;;2.53;;
46355;SDS011;32066;49.474;11.106;2024-02-21T10:16:01;12.50;;;3.42;;
46355;SDS011;32066;49.474;11.106;2024-02-21T10:18:30;7.70;;;2.42;;
46355;SDS011;32066;49.474;11.106;2024-02-21T10:20:59;10.43;;;2.30;;
46355;SDS011;32066;49.474;11.106;2024-02-21T10:23:44;9.07;;;2.20;;
46355;SDS011;32066;49.474;11.106;2024-02-21T10:26:16;8.57;;;2.78;;
46355;SDS011;32066;49.474;11.106;2024-02-21T10:28:46;9.40;;;2.75;;
46355;SDS011;32066;49.474;11.106;2024-02-21T10:31:23;8.02;;;2.53;;
46355;SDS011;32066;49.474;11.106;2024-02-21T10:33:55;9.25;;;2.40;;
46355;SDS011;32066;49.474;11.106;2024-02-21T10:36:25;14.73;;;2.22;;
46355;SDS011;32066;49.474;11.106;2024-02-21T10:38:54;7.57;;;2.45;;
46355;SDS011;32066;49.474;11.106;2024-02-21T10:41:26;6.95;;;2.40;;
46355;SDS011;32066;49.474;11.106;2024-02-21T10:43:54;10.32;;;2.58;;
46355;SDS011;32066;49.474;11.106;2024-02-21T10:46:24;10.65;;;3.22;;
46355;SDS011;32066;49.474;11.106;2024-02-21T10:48:56;7.82;;;2.45;;
46355;SDS011;32066;49.474;11.106;2024-02-21T10:51:33;8.77;;;2.47;;
46355;SDS011;32066;49.474;11.106;2024-02-21T10:54:07;7.45;;;2.53;;
46355;SDS011;32066;49.474;11.106;2024-02-21T10:56:48;8.10;;;2.50;;
46355;SDS011;32066;49.474;11.106;2024-02-21T10:59:19;9.48;;;2.25;;
46355;SDS011;32066;49.474;11.106;2024-02-21T11:01:48;7.55;;;2.35;;
46355;SDS011;32066;49.474;11.106;2024-02-21T11:04:17;8.43;;;2.60;;
46355;SDS011;32066;49.474;11.106;2024-02-21T11:06:46;7.32;;;2.53;;
46355;SDS011;32066;49.474;11.106;2024-02-21T11:09:16;8.57;;;2.78;;
46355;SDS011;32066;49.474;11.106;2024-02-21T11:11:45;5.95;;;2.28;;
46355;SDS011;32066;49.474;11.106;2024-02-21T11:14:20;8.82;;;2.42;;
46355;SDS011;32066;49.474;11.106;2024-02-21T11:16:49;8.55;;;2.42;;
46355;SDS011;32066;49.474;11.106;2024-02-21T11:19:21;6.97;;;1.98;;
46355;SDS011;32066;49.474;11.106;2024-02-21T11:21:51;6.72;;;2.13;;
46355;SDS011;32066;49.474;11.106;2024-02-21T11:24:27;7.82;;;2.50;;
46355;SDS011;32066;49.474;11.106;2024-02-21T11:26:56;7.13;;;2.47;;
46355;SDS011;32066;49.474;11.106;2024-02-21T11:29:42;10.93;;;2.78;;
46355;SDS011;32066;49.474;11.106;2024-02-21T11:32:11;9.18;;;2.63;;
46355;SDS011;32066;49.474;11.106;2024-02-21T11:34:52;7.40;;;2.40;;
46355;SDS011;32066;49.474;11.106;2024-02-21T11:37:26;8.82;;;2.90;;
46355;SDS011;32066;49.474;11.106;2024-02-21T11:39:57;7.10;;;2.20;;
46355;SDS011;32066;49.474;11.106;2024-02-21T11:42:26;6.20;;;2.10;;
46355;SDS011;32066;49.474;11.106;2024-02-21T11:44:59;6.22;;;2.00;;
46355;SDS011;32066;49.474;11.106;2024-02-21T11:47:28;8.13;;;2.15;;
46355;SDS011;32066;49.474;11.106;2024-02-21T11:49:57;7.35;;;2.05;;
46355;SDS011;32066;49.474;11.106;2024-02-21T11:52:25;8.57;;;2.40;;
46355;SDS011;32066;49.474;11.106;2024-02-21T11:54:54;7.35;;;2.30;;
46355;SDS011;32066;49.474;11.106;2024-02-21T11:57:29;8.00;;;2.30;;
46355;SDS011;32066;49.474;11.106;2024-02-21T12:00:12;8.05;;;2.58;;
46355;SDS011;32066;49.474;11.106;2024-02-21T12:02:43;8.40;;;2.40;;
46355;SDS011;32066;49.474;11.106;2024-02-21T12:05:12;10.32;;;2.67;;
46355;SDS011;32066;49.474;11.106;2024-02-21T12:07:40;8.25;;;2.17;;
46355;SDS011;32066;49.474;11.106;2024-02-21T12:10:10;6.50;;;2.38;;
46355;SDS011;32066;49.474;11.106;2024-02-21T12:12:39;7.93;;;2.17;;
46355;SDS011;32066;49.474;11.106;2024-02-21T12:15:08;8.20;;;2.20;;
46355;SDS011;32066;49.474;11.106;2024-02-21T12:17:40;9.80;;;2.50;;
46355;SDS011;32066;49.474;11.106;2024-02-21T12:20:09;7.50;;;1.90;;
46355;SDS011;32066;49.474;11.106;2024-02-21T12:22:39;8.23;;;2.08;;
46355;SDS011;32066;49.474;11.106;2024-02-21T12:25:15;10.32;;;2.47;;
46355;SDS011;32066;49.474;11.106;2024-02-21T12:30:16;7.25;;;2.00;;
46355;SDS011;32066;49.474;11.106;2024-02-21T12:32:45;6.75;;;2.17;;
46355;SDS011;32066;49.474;11.106;2024-02-21T12:35:15;7.28;;;1.90;;
46355;SDS011;32066;49.474;11.106;2024-02-21T12:37:44;13.45;;;2.17;;
46355;SDS011;32066;49.474;11.106;2024-02-21T12:40:12;6.32;;;2.13;;
46355;SDS011;32066;49.474;11.106;2024-02-21T12:42:41;6.75;;;2.08;;
46355;SDS011;32066;49.474;11.106;2024-02-21T12:45:10;6.85;;;2.33;;
46355;SDS011;32066;49.474;11.106;2024-02-21T12:47:43;10.93;;;2.47;;
46355;SDS011;32066;49.474;11.106;2024-02-21T12:50:12;7.43;;;2.25;;
46355;SDS011;32066;49.474;11.106;2024-02-21T12:52:40;8.15;;;2.35;;
46355;SDS011;32066;49.474;11.106;2024-02-21T12:55:09;7.05;;;1.83;;
46355;SDS011;32066;49.474;11.106;2024-02-21T12:57:38;6.68;;;1.80;;
46355;SDS011;32066;49.474;11.106;2024-02-21T13:00:11;6.03;;;2.17;;
46355;SDS011;32066;49.474;11.106;2024-02-21T13:02:43;5.78;;;2.00;;
46355;SDS011;32066;49.474;11.106;2024-02-21T13:05:11;5.78;;;1.73;;
46355;SDS011;32066;49.474;11.106;2024-02-21T13:07:40;7.68;;;2.28;;
46355;SDS011;32066;49.474;11.106;2024-02-21T13:10:08;9.07;;;2.03;;
46355;SDS011;32066;49.474;11.106;2024-02-21T13:12:37;5.55;;;1.95;;
46355;SDS011;32066;49.474;11.106;2024-02-21T13:15:06;6.95;;;1.80;;
46355;SDS011;32066;49.474;11.106;2024-02-21T13:17:37;7.25;;;2.10;;
46355;SDS011;32066;49.474;11.106;2024-02-21T13:20:09;6.82;;;1.92;;
46355;SDS011;32066;49.474;11.106;2024-02-21T13:22:38;6.75;;;1.70;;
46355;SDS011;32066;49.474;11.106;2024-02-21T13:25:07;10.05;;;2.00;;
46355;SDS011;32066;49.474;11.106;2024-02-21T13:27:40;7.22;;;1.90;;
46355;SDS011;32066;49.474;11.106;2024-02-21T13:30:09;8.52;;;2.25;;
46355;SDS011;32066;49.474;11.106;2024-02-21T13:32:41;7.75;;;2.00;;
46355;SDS011;32066;49.474;11.106;2024-02-21T13:35:13;6.30;;;1.83;;
46355;SDS011;32066;49.474;11.106;2024-02-21T13:37:43;7.68;;;2.00;;
46355;SDS011;32066;49.474;11.106;2024-02-21T13:40:12;4.75;;;1.50;;
46355;SDS011;32066;49.474;11.106;2024-02-21T13:42:41;5.97;;;1.95;;
46355;SDS011;32066;49.474;11.106;2024-02-21T13:45:11;6.32;;;1.83;;
46355;SDS011;32066;49.474;11.106;2024-02-21T13:47:39;7.30;;;2.05;;
46355;SDS011;32066;49.474;11.106;2024-02-21T13:50:08;8.23;;;2.20;;
46355;SDS011;32066;49.474;11.106;2024-02-21T13:52:42;6.07;;;1.90;;
46355;SDS011;32066;49.474;11.106;2024-02-21T13:55:10;6.88;;;1.85;;
46355;SDS011;32066;49.474;11.106;2024-02-21T13:57:39;6.70;;;1.90;;
46355;SDS011;32066;49.474;11.106;2024-02-21T14:00:08;5.07;;;2.00;;
46355;SDS011;32066;49.474;11.106;2024-02-21T14:02:37;5.88;;;1.70;;
46355;SDS011;32066;49.474;11.106;2024-02-21T14:05:07;5.90;;;1.75;;
46355;SDS011;32066;49.474;11.106;2024-02-21T14:07:36;5.43;;;1.80;;
46355;SDS011;32066;49.474;11.106;2024-02-21T14:10:07;6.22;;;1.70;;
46355;SDS011;32066;49.474;11.106;2024-02-21T14:12:37;5.68;;;1.45;;
46355;SDS011;32066;49.474;11.106;2024-02-21T14:15:06;7.55;;;1.80;;
46355;SDS011;32066;49.474;11.106;2024-02-21T14:17:35;5.38;;;1.67;;
46355;SDS011;32066;49.474;11.106;2024-02-21T14:20:04;7.63;;;2.13;;
46355;SDS011;32066;49.474;11.106;2024-02-21T14:22:34;7.20;;;2.10;;
46355;SDS011;32066;49.474;11.106;2024-02-21T14:25:03;5.07;;;1.30;;
46355;SDS011;32066;49.474;11.106;2024-02-21T14:27:35;6.10;;;1.63;;
46355;SDS011;32066;49.474;11.106;2024-02-21T14:30:04;6.82;;;2.00;;
46355;SDS011;32066;49.474;11.106;2024-02-21T14:32:36;5.70;;;1.70;;
46355;SDS011;32066;49.474;11.106;2024-02-21T14:35:05;4.50;;;1.70;;
46355;SDS011;32066;49.474;11.106;2024-02-21T14:37:33;4.78;;;1.60;;
46355;SDS011;32066;49.474;11.106;2024-02-21T14:40:02;4.85;;;1.60;;
46355;SDS011;32066;49.474;11.106;2024-02-21T14:42:34;6.03;;;1.77;;
46355;SDS011;32066;49.474;11.106;2024-02-21T14:45:03;5.00;;;1.42;;